createdAt,value
2018-07-27T00:02:26.198Z,51.30
2018-07-27T00:04:54.734Z,51.30
2018-07-27T00:07:23.171Z,51.40
2018-07-27T00:09:52.199Z,51.60
2018-07-27T00:12:20.672Z,51.70
2018-07-27T00:14:49.168Z,51.70
2018-07-27T00:17:17.658Z,52.00
2018-07-27T00:19:46.144Z,52.20
2018-07-27T00:22:14.638Z,52.50
2018-07-27T00:24:43.076Z,52.90
2018-07-27T00:27:11.591Z,53.20
2018-07-27T00:29:40.023Z,53.40
2018-07-27T00:32:08.571Z,54.00
2018-07-27T00:34:37.184Z,54.20
2018-07-27T00:37:06.004Z,54.10
2018-07-27T00:39:34.451Z,54.50
2018-07-27T00:42:02.972Z,54.60
2018-07-27T00:44:31.464Z,55.00
2018-07-27T00:47:00.330Z,55.20
2018-07-27T00:49:28.844Z,55.50
2018-07-27T00:51:57.417Z,55.80
2018-07-27T00:54:25.867Z,56.20
2018-07-27T00:56:54.394Z,56.80
2018-07-27T00:59:23.376Z,57.20
2018-07-27T01:01:51.886Z,58.20
2018-07-27T01:04:20.327Z,58.00
2018-07-27T01:06:48.870Z,58.40
2018-07-27T01:09:17.299Z,58.70
2018-07-27T01:11:45.953Z,59.00
2018-07-27T01:14:14.399Z,59.20
2018-07-27T01:16:42.884Z,59.40
2018-07-27T01:19:11.367Z,59.70
2018-07-27T01:21:39.820Z,59.90
2018-07-27T01:24:08.352Z,60.20
2018-07-27T01:26:36.847Z,60.40
2018-07-27T01:29:05.936Z,60.40
2018-07-27T01:31:34.721Z,60.40
2018-07-27T01:34:03.256Z,60.20
2018-07-27T01:36:31.710Z,60.20
2018-07-27T01:39:00.258Z,60.10
2018-07-27T01:41:28.755Z,60.10
2018-07-27T01:43:57.283Z,60.40
2018-07-27T01:46:25.734Z,60.80
2018-07-27T01:48:54.531Z,61.00
2018-07-27T01:51:23.044Z,61.40
2018-07-27T01:53:51.524Z,61.80
2018-07-27T01:56:19.959Z,61.80
2018-07-27T01:58:48.451Z,61.70
2018-07-27T02:01:16.901Z,61.90
2018-07-27T02:03:45.571Z,62.30
2018-07-27T02:06:14.014Z,62.50
2018-07-27T02:08:42.563Z,62.80
2018-07-27T02:11:11.012Z,62.90
2018-07-27T02:13:39.846Z,63.40
2018-07-27T02:16:08.325Z,63.70
2018-07-27T02:18:36.805Z,63.90
2018-07-27T02:23:33.565Z,64.10
2018-07-27T02:26:02.345Z,64.90
2018-07-27T02:28:30.824Z,64.00
2018-07-27T02:30:59.299Z,64.70
2018-07-27T02:33:27.805Z,64.80
2018-07-27T02:35:56.320Z,65.00
2018-07-27T02:38:24.922Z,65.30
2018-07-27T02:40:53.424Z,65.50
2018-07-27T02:43:21.868Z,65.70
2018-07-27T02:45:50.692Z,65.80
2018-07-27T02:48:19.186Z,65.90
2018-07-27T02:50:47.638Z,66.30
2018-07-27T02:53:16.135Z,66.40
2018-07-27T02:55:44.629Z,66.30
2018-07-27T03:00:41.683Z,66.40
2018-07-27T03:03:10.165Z,66.20
2018-07-27T03:05:38.611Z,66.40
2018-07-27T03:08:07.077Z,66.00
2018-07-27T03:10:35.530Z,65.90
2018-07-27T03:13:04.731Z,65.80
2018-07-27T03:15:33.202Z,66.10
2018-07-27T03:18:01.643Z,66.10
2018-07-27T03:20:30.148Z,66.00
2018-07-27T03:22:58.620Z,66.00
2018-07-27T03:25:27.091Z,66.20
2018-07-27T03:27:55.526Z,66.70
2018-07-27T03:30:24.337Z,67.00
2018-07-27T03:32:52.772Z,67.30
2018-07-27T03:35:21.239Z,67.70
2018-07-27T03:37:49.654Z,67.90
2018-07-27T03:40:18.146Z,67.80
2018-07-27T03:42:46.600Z,68.00
2018-07-27T03:45:15.076Z,67.70
2018-07-27T03:47:43.528Z,67.50
2018-07-27T03:52:40.191Z,67.20
2018-07-27T03:55:08.698Z,67.40
2018-07-27T03:57:37.136Z,67.80
2018-07-27T04:00:08.499Z,68.20
2018-07-27T04:02:36.986Z,68.60
2018-07-27T04:05:05.841Z,69.00
2018-07-27T04:07:34.288Z,69.40
2018-07-27T04:10:02.941Z,69.50
2018-07-27T04:12:31.374Z,69.40
2018-07-27T04:14:59.904Z,69.40
2018-07-27T04:17:28.527Z,69.20
2018-07-27T04:19:57.017Z,69.00
2018-07-27T04:22:25.503Z,68.90
2018-07-27T04:24:54.162Z,68.70
2018-07-27T04:27:22.631Z,68.80
2018-07-27T04:29:51.107Z,69.40
2018-07-27T04:32:19.567Z,69.50
2018-07-27T04:34:48.042Z,69.70
2018-07-27T04:37:16.527Z,70.00
2018-07-27T04:39:45.007Z,70.30
2018-07-27T04:42:13.519Z,70.40
2018-07-27T04:44:42.442Z,70.30
2018-07-27T04:47:10.871Z,70.30
2018-07-27T04:49:39.299Z,70.40
2018-07-27T04:52:07.788Z,70.30
2018-07-27T04:54:36.250Z,70.20
2018-07-27T04:57:05.049Z,70.10
2018-07-27T04:59:33.915Z,70.00
2018-07-27T05:02:02.554Z,69.70
2018-07-27T05:04:35.340Z,69.20
2018-07-27T05:07:13.045Z,69.20
2018-07-27T05:12:15.216Z,68.90
2018-07-27T05:17:28.755Z,68.50
2018-07-27T05:20:10.568Z,68.20
2018-07-27T05:22:48.274Z,68.40
2018-07-27T05:27:49.778Z,67.00
2018-07-27T05:30:18.210Z,67.10
2018-07-27T05:32:46.972Z,66.60
2018-07-27T05:35:15.403Z,65.60
2018-07-27T05:37:43.888Z,65.10
2018-07-27T05:40:12.355Z,64.50
2018-07-27T05:42:40.841Z,64.60
2018-07-27T05:45:09.642Z,63.70
2018-07-27T05:47:38.119Z,62.90
2018-07-27T05:50:06.920Z,62.80
2018-07-27T05:52:35.447Z,61.50
2018-07-27T05:55:03.915Z,60.60
2018-07-27T05:57:32.632Z,60.80
2018-07-27T06:00:01.082Z,59.80
2018-07-27T06:02:29.550Z,59.90
2018-07-27T06:04:57.989Z,59.60
2018-07-27T06:07:26.840Z,59.40
2018-07-27T06:09:59.490Z,59.10
2018-07-27T06:12:47.666Z,58.80
2018-07-27T06:15:16.968Z,58.50
2018-07-27T06:17:46.594Z,58.30
2018-07-27T06:20:15.422Z,57.90
2018-07-27T06:22:43.890Z,57.20
2018-07-27T06:25:12.642Z,57.10
2018-07-27T06:27:41.128Z,57.10
2018-07-27T06:30:09.571Z,55.80
2018-07-27T06:32:38.433Z,55.60
2018-07-27T06:35:07.228Z,54.50
2018-07-27T06:37:35.731Z,54.10
2018-07-27T06:40:04.468Z,53.70
2018-07-27T06:42:32.994Z,53.90
2018-07-27T06:47:29.776Z,53.70
2018-07-27T06:49:58.211Z,53.20
2018-07-27T06:52:26.709Z,52.50
2018-07-27T06:54:55.670Z,52.10
2018-07-27T06:57:24.118Z,52.70
2018-07-27T06:59:52.604Z,52.70
2018-07-27T07:02:21.047Z,52.10
2018-07-27T07:04:49.771Z,52.90
2018-07-27T07:07:18.218Z,52.70
2018-07-27T07:09:46.671Z,52.50
2018-07-27T07:12:15.117Z,52.40
2018-07-27T07:14:43.599Z,52.90
2018-07-27T07:17:12.140Z,52.70
2018-07-27T07:19:40.602Z,52.70
2018-07-27T07:22:09.064Z,53.00
2018-07-27T07:24:37.532Z,52.90
2018-07-27T07:27:06.005Z,52.80
2018-07-27T07:29:34.486Z,52.30
2018-07-27T07:32:03.261Z,52.20
2018-07-27T07:34:31.736Z,51.20
2018-07-27T07:37:00.187Z,51.30
2018-07-27T07:39:28.659Z,52.50
2018-07-27T07:41:57.671Z,51.60
2018-07-27T07:44:27.671Z,51.50
2018-07-27T07:46:56.638Z,50.90
2018-07-27T07:49:25.666Z,51.10
2018-07-27T07:51:54.851Z,50.80
2018-07-27T07:54:23.885Z,49.60
2018-07-27T07:56:52.861Z,50.20
2018-07-27T07:59:21.893Z,50.40
2018-07-27T08:01:50.872Z,49.10
2018-07-27T08:04:20.000Z,49.30
2018-07-27T08:06:49.136Z,47.70
2018-07-27T08:09:18.150Z,47.00
2018-07-27T08:11:47.161Z,47.10
2018-07-27T08:14:16.170Z,46.90
2018-07-27T08:16:45.191Z,47.20
2018-07-27T08:19:14.212Z,47.80
2018-07-27T08:21:43.180Z,46.50
2018-07-27T08:24:12.203Z,45.90
2018-07-27T08:26:48.511Z,45.80
2018-07-27T08:31:48.948Z,46.00
2018-07-27T08:37:00.929Z,45.00
2018-07-27T08:39:32.307Z,43.80
2018-07-27T08:42:01.517Z,43.80
2018-07-27T08:44:33.508Z,43.10
2018-07-27T08:47:02.883Z,42.70
2018-07-27T08:49:34.007Z,43.10
2018-07-27T08:52:03.110Z,42.90
2018-07-27T08:54:32.229Z,43.20
2018-07-27T08:57:01.228Z,43.00
2018-07-27T08:59:30.245Z,43.80
2018-07-27T09:01:59.218Z,43.10
2018-07-27T09:04:28.659Z,42.50
2018-07-27T09:06:57.974Z,42.30
2018-07-27T09:09:37.126Z,41.30
2018-07-27T09:12:06.455Z,41.00
2018-07-27T09:14:35.649Z,41.10
2018-07-27T09:17:04.735Z,40.20
2018-07-27T09:19:34.009Z,40.20
2018-07-27T09:22:24.193Z,40.80
2018-07-27T09:24:53.596Z,40.00
2018-07-27T09:27:22.698Z,40.80
2018-07-27T09:29:51.723Z,41.50
2018-07-27T09:32:20.732Z,41.10
2018-07-27T09:34:49.746Z,40.90
2018-07-27T09:37:18.737Z,38.80
2018-07-27T09:39:47.745Z,40.00
2018-07-27T09:42:16.711Z,40.00
2018-07-27T09:44:45.740Z,39.00
2018-07-27T09:47:14.859Z,38.80
2018-07-27T09:49:45.470Z,38.50
2018-07-27T09:52:14.470Z,38.40
2018-07-27T09:54:43.499Z,38.30
2018-07-27T09:57:12.475Z,36.00
2018-07-27T09:59:41.576Z,37.30
2018-07-27T10:02:10.590Z,37.30
2018-07-27T10:07:08.647Z,37.50
2018-07-27T10:09:37.640Z,37.10
2018-07-27T10:12:06.767Z,36.80
2018-07-27T10:14:35.755Z,36.80
2018-07-27T10:17:04.956Z,36.80
2018-07-27T10:19:33.969Z,35.70
2018-07-27T10:22:03.004Z,35.20
2018-07-27T10:24:31.983Z,37.10
2018-07-27T10:27:01.195Z,36.90
2018-07-27T10:29:30.175Z,37.10
2018-07-27T10:31:59.216Z,35.30
2018-07-27T10:34:28.330Z,36.20
2018-07-27T10:36:57.876Z,37.10
2018-07-27T10:39:27.051Z,38.00
2018-07-27T10:41:56.087Z,37.80
2018-07-27T10:44:25.198Z,37.20
2018-07-27T10:46:54.227Z,36.10
2018-07-27T10:49:23.204Z,36.70
2018-07-27T10:51:52.251Z,37.10
2018-07-27T10:54:21.818Z,37.10
2018-07-27T10:56:50.836Z,36.20
2018-07-27T10:59:19.827Z,36.00
2018-07-27T11:01:48.867Z,37.10
2018-07-27T11:06:50.186Z,37.40
2018-07-27T11:09:20.769Z,37.50
2018-07-27T11:11:50.108Z,37.30
2018-07-27T11:14:19.248Z,39.30
2018-07-27T11:16:48.558Z,40.00
2018-07-27T11:21:46.614Z,40.50
2018-07-27T11:24:15.633Z,40.60
2018-07-27T11:29:13.365Z,41.70
2018-07-27T11:31:42.663Z,41.60
2018-07-27T11:34:11.654Z,41.20
2018-07-27T11:36:40.768Z,41.20
2018-07-27T11:39:11.454Z,41.70
2018-07-27T11:41:40.779Z,42.00
2018-07-27T11:44:09.771Z,42.10
2018-07-27T11:46:38.820Z,43.00
2018-07-27T11:49:07.803Z,41.80
2018-07-27T11:51:36.832Z,42.40
2018-07-27T11:54:05.862Z,43.40
2018-07-27T11:56:34.874Z,44.90
2018-07-27T11:59:03.871Z,45.50
2018-07-27T12:01:32.948Z,44.90
2018-07-27T12:04:02.179Z,44.50
2018-07-27T12:09:02.008Z,44.90
2018-07-27T12:11:31.037Z,45.40
2018-07-27T12:14:00.085Z,45.90
2018-07-27T12:16:29.313Z,45.10
2018-07-27T12:18:58.311Z,44.70
2018-07-27T12:21:27.575Z,44.60
2018-07-27T12:23:56.514Z,45.00
2018-07-27T12:26:25.542Z,45.80
2018-07-27T12:28:54.896Z,45.10
2018-07-27T12:31:24.128Z,45.10
2018-07-27T12:33:53.223Z,45.10
2018-07-27T12:36:22.208Z,44.80
2018-07-27T12:38:51.233Z,44.80
2018-07-27T12:41:20.415Z,44.60
2018-07-27T12:43:49.440Z,43.40
2018-07-27T12:46:18.448Z,45.20
2018-07-27T12:48:47.515Z,45.30
2018-07-27T12:53:45.415Z,45.40
2018-07-27T12:56:14.582Z,46.00
2018-07-27T12:58:44.449Z,45.40
2018-07-27T13:01:13.447Z,43.90
2018-07-27T13:03:42.472Z,44.90
2018-07-27T13:06:11.458Z,44.90
2018-07-27T13:08:45.905Z,44.70
2018-07-27T13:11:14.955Z,43.90
2018-07-27T13:13:43.959Z,39.90
2018-07-27T13:16:12.988Z,42.60
2018-07-27T13:18:42.015Z,42.10
2018-07-27T13:21:12.084Z,41.70
2018-07-27T13:23:53.794Z,40.60
2018-07-27T13:28:52.093Z,39.80
2018-07-27T13:31:58.564Z,37.50
2018-07-27T13:37:08.130Z,38.00
2018-07-27T13:39:37.978Z,38.20
2018-07-27T13:42:08.431Z,38.30
2018-07-27T13:44:38.177Z,37.60
2018-07-27T13:47:07.951Z,38.20
2018-07-27T13:49:36.975Z,38.50
2018-07-27T13:52:06.005Z,38.50
2018-07-27T13:54:35.619Z,38.10
2018-07-27T13:57:06.287Z,37.80
2018-07-27T13:59:35.291Z,38.10
2018-07-27T14:02:04.694Z,38.50
2018-07-27T14:04:33.689Z,38.70
2018-07-27T14:07:03.739Z,38.70
2018-07-27T14:09:32.782Z,39.20
2018-07-27T14:12:01.835Z,40.20
2018-07-27T14:14:30.839Z,38.70
2018-07-27T14:17:00.016Z,38.40
2018-07-27T14:19:29.942Z,37.00
2018-07-27T14:21:58.947Z,37.00
2018-07-27T14:24:27.959Z,36.20
2018-07-27T14:26:57.019Z,34.10
2018-07-27T14:29:26.046Z,33.80
2018-07-27T14:31:55.064Z,32.80
2018-07-27T14:34:24.090Z,32.70
2018-07-27T14:36:53.116Z,32.60
2018-07-27T14:39:22.316Z,30.80
2018-07-27T14:41:51.311Z,31.20
2018-07-27T14:44:20.362Z,31.30
2018-07-27T14:46:50.000Z,29.50
2018-07-27T14:49:19.036Z,29.30
2018-07-27T14:51:48.028Z,30.00
2018-07-27T14:54:17.095Z,29.40
2018-07-27T14:56:46.145Z,29.50
2018-07-27T14:59:15.183Z,30.20
2018-07-27T15:01:44.220Z,29.60
2018-07-27T15:04:13.408Z,29.70
2018-07-27T15:06:42.749Z,30.00
2018-07-27T15:09:13.659Z,28.70
2018-07-27T15:11:43.339Z,29.60
2018-07-27T15:14:12.388Z,30.00
2018-07-27T15:16:41.406Z,28.90
2018-07-27T15:19:10.436Z,29.40
2018-07-27T15:21:39.419Z,30.70
2018-07-27T15:24:08.431Z,29.80
2018-07-27T15:26:37.447Z,29.40
2018-07-27T15:29:06.471Z,29.70
2018-07-27T15:31:35.632Z,29.60
2018-07-27T15:34:05.026Z,29.50
2018-07-27T15:36:34.179Z,29.80
2018-07-27T15:39:03.596Z,29.30
2018-07-27T15:41:32.576Z,29.80
2018-07-27T15:44:01.604Z,28.50
2018-07-27T15:46:30.778Z,28.80
2018-07-27T15:48:59.778Z,30.00
2018-07-27T15:51:28.942Z,30.00
2018-07-27T15:53:58.206Z,29.70
2018-07-27T15:56:27.226Z,30.10
2018-07-27T15:58:56.323Z,30.00
2018-07-27T16:03:54.055Z,29.40
2018-07-27T16:06:23.227Z,28.60
2018-07-27T16:08:52.204Z,29.40
2018-07-27T16:11:21.576Z,29.60
2018-07-27T16:13:50.557Z,29.30
2018-07-27T16:16:20.150Z,29.90
2018-07-27T16:18:49.154Z,30.30
2018-07-27T16:21:18.216Z,30.30
2018-07-27T16:23:47.564Z,30.80
2018-07-27T16:26:16.952Z,31.20
2018-07-27T16:28:45.936Z,30.90
2018-07-27T16:31:14.971Z,30.20
2018-07-27T16:33:43.953Z,30.60
2018-07-27T16:36:12.991Z,31.60
2018-07-27T16:38:41.971Z,31.70
2018-07-27T16:41:11.012Z,32.20
2018-07-27T16:43:40.037Z,32.60
2018-07-27T16:46:09.076Z,32.60
2018-07-27T16:48:38.080Z,32.70
2018-07-27T16:51:07.102Z,32.80
2018-07-27T16:53:36.106Z,32.90
2018-07-27T16:56:05.159Z,32.70
2018-07-27T16:58:34.147Z,33.00
2018-07-27T17:01:03.166Z,33.30
2018-07-27T17:03:32.174Z,33.30
2018-07-27T17:06:01.656Z,33.30
2018-07-27T17:08:31.187Z,33.30
2018-07-27T17:11:00.204Z,33.00
2018-07-27T17:13:29.255Z,33.30
2018-07-27T17:15:58.629Z,33.70
2018-07-27T17:18:27.649Z,34.70
2018-07-27T17:20:56.684Z,34.10
2018-07-27T17:23:25.667Z,34.50
2018-07-27T17:25:54.698Z,35.20
2018-07-27T17:28:23.772Z,35.40
2018-07-27T17:30:53.132Z,35.70
2018-07-27T17:33:22.142Z,36.10
2018-07-27T17:35:51.152Z,36.50
2018-07-27T17:38:20.134Z,37.00
2018-07-27T17:40:49.187Z,37.60
2018-07-27T17:43:18.563Z,37.70
2018-07-27T17:45:47.652Z,38.30
2018-07-27T17:48:16.994Z,38.20
2018-07-27T17:50:46.587Z,38.90
2018-07-27T17:53:15.599Z,38.60
2018-07-27T17:55:44.615Z,38.90
2018-07-27T17:58:13.615Z,39.30
2018-07-27T18:00:42.640Z,39.00
2018-07-27T18:03:11.620Z,39.30
2018-07-27T18:05:40.686Z,39.60
2018-07-27T18:08:09.738Z,39.90
2018-07-27T18:13:07.909Z,40.70
2018-07-27T18:15:37.182Z,40.60
2018-07-27T18:18:06.304Z,40.70
2018-07-27T18:20:35.373Z,41.30
2018-07-27T18:23:04.440Z,41.50
2018-07-27T18:25:33.744Z,41.70
2018-07-27T18:28:02.752Z,41.80
2018-07-27T18:30:31.793Z,42.40
2018-07-27T18:33:00.787Z,42.80
2018-07-27T18:35:30.168Z,43.30
2018-07-27T18:37:59.179Z,44.00
2018-07-27T18:40:28.189Z,44.00
2018-07-27T18:42:57.187Z,45.20
2018-07-27T18:45:26.249Z,44.90
2018-07-27T18:47:55.243Z,44.80
2018-07-27T18:50:24.227Z,44.80
2018-07-27T18:52:53.260Z,45.10
2018-07-27T18:55:22.248Z,45.30
2018-07-27T19:00:19.912Z,46.40
2018-07-27T19:02:48.943Z,46.40
2018-07-27T19:05:17.935Z,46.60
2018-07-27T19:07:46.950Z,47.50
2018-07-27T19:10:15.927Z,48.30
2018-07-27T19:12:44.954Z,48.60
2018-07-27T19:15:13.979Z,48.80
2018-07-27T19:17:43.013Z,49.10
2018-07-27T19:20:11.982Z,49.40
2018-07-27T19:22:41.000Z,49.40
2018-07-27T19:25:10.002Z,50.10
2018-07-27T19:27:39.369Z,50.20
2018-07-27T19:30:10.718Z,50.40
2018-07-27T19:32:39.736Z,50.40
2018-07-27T19:35:08.782Z,50.80
2018-07-27T19:37:37.827Z,51.10
2018-07-27T19:40:06.822Z,51.50
2018-07-27T19:42:35.883Z,52.20
2018-07-27T19:45:05.633Z,52.70
2018-07-27T19:47:34.658Z,53.00
2018-07-27T19:50:03.143Z,53.40
2018-07-27T19:52:31.631Z,53.30
2018-07-27T19:55:00.091Z,53.30
2018-07-27T19:57:28.991Z,53.30
2018-07-27T19:59:57.436Z,53.50
2018-07-27T20:02:26.235Z,53.80
2018-07-27T20:04:54.867Z,54.30
2018-07-27T20:07:23.711Z,54.40
2018-07-27T20:09:52.167Z,54.40
2018-07-27T20:12:20.602Z,53.80
2018-07-27T20:14:49.071Z,53.70
2018-07-27T20:17:17.538Z,54.00
2018-07-27T20:19:46.024Z,54.00
2018-07-27T20:22:14.475Z,54.50
2018-07-27T20:24:42.935Z,54.40
2018-07-27T20:27:11.379Z,53.90
2018-07-27T20:29:39.862Z,54.00
2018-07-27T20:32:08.652Z,54.20
2018-07-27T20:34:37.141Z,54.10
2018-07-27T20:37:06.620Z,54.50
2018-07-27T20:39:35.154Z,54.40
2018-07-27T20:42:03.671Z,54.50
2018-07-27T20:44:32.134Z,54.50
2018-07-27T20:47:00.591Z,54.70
2018-07-27T20:49:29.088Z,54.90
2018-07-27T20:52:00.495Z,55.20
2018-07-27T20:54:29.325Z,55.70
2018-07-27T20:56:58.067Z,55.90
2018-07-27T20:59:26.555Z,55.90
2018-07-27T21:01:55.003Z,56.10
2018-07-27T21:04:23.472Z,56.40
2018-07-27T21:06:52.105Z,56.70
2018-07-27T21:09:20.588Z,56.80
2018-07-27T21:11:49.051Z,56.80
2018-07-27T21:14:17.524Z,57.00
2018-07-27T21:16:45.999Z,56.60
2018-07-27T21:19:14.659Z,57.20
2018-07-27T21:21:43.155Z,57.30
2018-07-27T21:24:11.738Z,57.30
2018-07-27T21:26:40.199Z,57.30
2018-07-27T21:29:08.685Z,57.50
2018-07-27T21:31:37.167Z,57.70
2018-07-27T21:34:05.654Z,57.80
2018-07-27T21:36:34.187Z,57.80
2018-07-27T21:39:02.913Z,58.10
2018-07-27T21:41:31.387Z,58.20
2018-07-27T21:43:59.818Z,58.30
2018-07-27T21:46:28.323Z,59.00
2018-07-27T21:48:57.122Z,58.40
2018-07-27T21:51:25.589Z,58.50
2018-07-27T21:53:54.068Z,58.40
2018-07-27T21:56:22.500Z,58.40
2018-07-27T21:58:51.019Z,58.50
2018-07-27T22:01:19.542Z,58.60
2018-07-27T22:03:48.027Z,58.70
2018-07-27T22:06:16.469Z,59.00
2018-07-27T22:08:44.967Z,59.40
2018-07-27T22:11:13.764Z,59.60
2018-07-27T22:13:42.281Z,60.00
2018-07-27T22:16:10.779Z,60.40
2018-07-27T22:18:39.273Z,60.50
2018-07-27T22:21:07.739Z,60.60
2018-07-27T22:23:36.276Z,60.40
2018-07-27T22:26:04.963Z,60.30
2018-07-27T22:28:33.512Z,60.00
2018-07-27T22:31:02.011Z,59.90
2018-07-27T22:33:30.521Z,60.00
2018-07-27T22:35:59.008Z,60.20
2018-07-27T22:38:27.485Z,60.20
2018-07-27T22:40:56.332Z,60.30
2018-07-27T22:43:24.815Z,60.60
2018-07-27T22:45:53.266Z,60.80
2018-07-27T22:48:22.116Z,61.10
2018-07-27T22:50:50.619Z,61.50
2018-07-27T22:53:19.210Z,61.60
2018-07-27T22:55:47.650Z,61.90
2018-07-27T22:58:16.186Z,62.20
2018-07-27T23:00:44.834Z,62.20
2018-07-27T23:03:13.298Z,62.10
2018-07-27T23:05:41.771Z,61.90
2018-07-27T23:08:10.821Z,61.90
2018-07-27T23:10:39.460Z,61.80
2018-07-27T23:13:08.828Z,61.70
2018-07-27T23:15:37.532Z,61.70
2018-07-27T23:18:06.033Z,61.70
2018-07-27T23:20:34.516Z,61.70
2018-07-27T23:25:31.187Z,62.00
2018-07-27T23:27:59.662Z,61.70
2018-07-27T23:30:28.534Z,61.70
2018-07-27T23:32:56.972Z,61.50
2018-07-27T23:35:25.422Z,61.60
2018-07-27T23:37:53.902Z,61.70
2018-07-27T23:40:22.343Z,61.70
2018-07-27T23:42:50.844Z,61.70
2018-07-27T23:45:19.316Z,61.70
2018-07-27T23:47:48.182Z,61.70
2018-07-27T23:50:16.683Z,61.70
2018-07-27T23:52:45.170Z,62.10
2018-07-27T23:55:13.675Z,62.30
2018-07-27T23:57:42.155Z,62.60
